Terminal Aerodrome Forecast
Issued by NWS Hastings, NE

Home | Current Version | Previous Version | Text Only | Print | Product List | Glossary On
Versions: 1 2 3 4 5 6 7 8 9 10 11 12 13 14 15 16 17 18 19 20 21 22 23 24 25 26 27 28 29 30 31 32
000
FTUS43 KGID 022324
TAFGRI
TAF
KGRI 022324Z 0300/0324 14009KT P6SM SKC
     FM031000 17008KT 5SM BR BKN007 WS007/18043KT
     FM031600 18012G18KT P6SM BKN025
     FM031900 19014G20KT P6SM SCT025=

USA.gov is the U.S. government's official web portal to all federal, state and local government web resources and services.